Time;durP1;ratioP1;P1;durP2;ratioP2;P2;SDS_P1;SDS_P2;PMS_P1;PMS_P2;Temp;Humidity;BMP_temperature;BMP_pressure;BME280_temperature;BME280_humidity;BME280_pressure;Samples;Min_cycle;Max_cycle;Signal;HPM_P1;HPM_P2
2020/12/31 00:01:27;;;;;;;4.37;3.27;;;;;;;2.19;100.00;97347.47;5096258;28;20263;-66
2020/12/31 00:03:54;;;;;;;3.43;3.10;;;;;;;2.11;100.00;97347.84;5096026;28;20230;-66
2020/12/31 00:06:20;;;;;;;4.23;3.23;;;;;;;2.06;100.00;97349.81;5096024;28;20260;-66
2020/12/31 00:08:47;;;;;;;3.70;3.03;;;;;;;2.02;100.00;97348.28;5095578;28;20210;-66
2020/12/31 00:11:13;;;;;;;3.03;2.70;;;;;;;1.98;100.00;97340.69;5094585;28;20202;-68
2020/12/31 00:13:40;;;;;;;4.70;3.83;;;;;;;2.00;100.00;97344.06;5096084;28;20238;-67
2020/12/31 00:16:06;;;;;;;3.20;2.87;;;;;;;2.14;100.00;97342.47;5095879;28;20210;-65
2020/12/31 00:18:32;;;;;;;3.70;2.97;;;;;;;2.22;100.00;97335.16;5095718;28;20579;-64
2020/12/31 00:20:58;;;;;;;6.77;3.40;;;;;;;2.31;100.00;97333.81;5095641;28;20215;-65
2020/12/31 00:23:24;;;;;;;3.90;3.40;;;;;;;2.37;100.00;97329.16;5095504;28;20759;-66
2020/12/31 00:25:52;;;;;;;4.17;3.33;;;;;;;2.46;100.00;97333.91;5093457;28;20253;-65
2020/12/31 00:28:20;;;;;;;3.70;3.40;;;;;;;2.51;100.00;97316.28;5095140;28;20202;-66
2020/12/31 00:30:47;;;;;;;4.13;3.20;;;;;;;2.57;100.00;97325.56;5095378;28;20211;-65
2020/12/31 00:33:14;;;;;;;3.70;3.27;;;;;;;2.58;100.00;97328.06;5095308;28;20210;-65
2020/12/31 00:35:40;;;;;;;3.53;3.10;;;;;;;2.62;100.00;97324.41;5095222;28;20688;-67
2020/12/31 00:38:06;;;;;;;3.20;2.90;;;;;;;2.61;100.00;97322.72;5095002;28;20211;-65
2020/12/31 00:40:33;;;;;;;3.70;3.23;;;;;;;2.65;100.00;97328.63;5095287;28;20234;-64
2020/12/31 00:42:59;;;;;;;4.30;3.70;;;;;;;2.71;100.00;97318.75;5095273;28;20237;-65
2020/12/31 00:45:26;;;;;;;5.07;4.30;;;;;;;2.77;100.00;97323.63;5094803;28;20219;-64
2020/12/31 00:47:52;;;;;;;3.93;3.53;;;;;;;2.80;100.00;97320.00;5095181;28;20207;-64
2020/12/31 00:50:18;;;;;;;4.43;3.70;;;;;;;2.81;100.00;97319.09;5095027;28;20215;-64
2020/12/31 00:52:44;;;;;;;3.77;3.43;;;;;;;2.80;100.00;97318.25;5093210;28;20264;-63
2020/12/31 00:55:10;;;;;;;4.53;4.03;;;;;;;2.87;100.00;97314.41;5094587;28;20210;-63
2020/12/31 00:57:36;;;;;;;4.20;3.50;;;;;;;2.89;100.00;97316.94;5094910;28;20214;-63
2020/12/31 01:00:05;;;;;;;3.63;3.27;;;;;;;2.92;100.00;97316.75;5094764;28;20267;-65
2020/12/31 01:02:32;;;;;;;3.50;3.20;;;;;;;2.97;100.00;97318.22;5094771;28;20218;-66
2020/12/31 01:04:57;;;;;;;4.77;3.83;;;;;;;2.96;100.00;97319.16;5094398;28;20272;-65
2020/12/31 01:07:23;;;;;;;4.90;3.63;;;;;;;2.94;100.00;97318.38;5094584;28;20215;-64
2020/12/31 01:09:49;;;;;;;4.07;3.67;;;;;;;3.03;100.00;97319.66;5094418;28;20213;-65
2020/12/31 01:12:15;;;;;;;4.50;3.70;;;;;;;3.04;100.00;97314.38;5094558;28;20271;-67
2020/12/31 01:14:41;;;;;;;4.27;3.43;;;;;;;3.05;100.00;97308.22;5094623;28;20691;-66
2020/12/31 01:17:07;;;;;;;3.77;3.37;;;;;;;3.07;100.00;97311.59;5092722;28;20210;-65
2020/12/31 01:19:34;;;;;;;4.20;3.60;;;;;;;3.11;100.00;97315.72;5094140;28;20277;-66
2020/12/31 01:22:00;;;;;;;3.87;3.47;;;;;;;3.03;100.00;97317.91;5094047;28;20210;-65
2020/12/31 01:24:26;;;;;;;5.10;3.90;;;;;;;2.95;100.00;97312.22;5094332;28;20219;-66
2020/12/31 01:26:52;;;;;;;4.40;3.97;;;;;;;2.88;100.00;97308.25;5094129;28;20211;-66
2020/12/31 01:29:18;;;;;;;5.77;4.27;;;;;;;2.74;100.00;97302.91;5094339;28;20242;-65
2020/12/31 01:31:47;;;;;;;4.33;3.70;;;;;;;2.66;100.00;97299.88;5094317;28;20217;-65
2020/12/31 01:34:13;;;;;;;5.30;4.10;;;;;;;2.57;100.00;97300.31;5094030;28;20208;-65
2020/12/31 01:36:40;;;;;;;4.40;3.73;;;;;;;2.46;100.00;97302.63;5093852;28;20210;-65
2020/12/31 01:39:06;;;;;;;4.00;3.60;;;;;;;2.39;100.00;97306.44;5094074;28;20233;-65
2020/12/31 01:41:32;;;;;;;5.17;4.10;;;;;;;2.33;100.00;97304.16;5093744;28;20289;-64
2020/12/31 01:44:03;;;;;;;4.10;3.37;;;;;;;2.27;100.00;97301.84;5092059;28;20206;-65
2020/12/31 01:46:32;;;;;;;4.63;3.47;;;;;;;2.21;100.00;97296.94;5093683;28;20218;-65
2020/12/31 01:48:58;;;;;;;4.23;3.73;;;;;;;2.16;100.00;97298.97;5093939;28;20232;-65
2020/12/31 01:51:25;;;;;;;4.20;3.70;;;;;;;2.05;100.00;97301.25;5094049;28;20568;-64
2020/12/31 01:53:56;;;;;;;3.40;3.10;;;;;;;1.91;100.00;97302.81;5093658;28;20688;-64
2020/12/31 01:56:27;;;;;;;4.03;3.50;;;;;;;1.82;100.00;97298.03;5093764;28;20203;-64
2020/12/31 01:58:53;;;;;;;4.63;3.33;;;;;;;1.71;100.00;97289.91;5093762;28;20210;-66
2020/12/31 02:01:20;;;;;;;3.47;2.97;;;;;;;1.59;100.00;97286.13;5093815;28;20207;-65
2020/12/31 02:03:46;;;;;;;3.50;3.00;;;;;;;1.46;100.00;97289.34;5093808;28;20217;-64
2020/12/31 02:06:12;;;;;;;5.57;3.30;;;;;;;1.38;100.00;97287.13;5093763;28;20551;-64
2020/12/31 02:08:38;;;;;;;4.60;4.00;;;;;;;1.30;100.00;97286.63;5093258;28;20218;-64
2020/12/31 02:11:06;;;;;;;5.43;3.47;;;;;;;1.19;100.00;97281.09;5091668;28;20206;-65
2020/12/31 02:13:32;;;;;;;4.97;3.90;;;;;;;1.08;100.00;97283.34;5093124;28;20234;-65
2020/12/31 02:15:59;;;;;;;4.03;3.63;;;;;;;1.01;100.00;97275.88;5093274;28;20215;-66
2020/12/31 02:18:25;;;;;;;4.37;3.73;;;;;;;0.95;100.00;97287.41;5093242;28;20207;-66
2020/12/31 02:20:51;;;;;;;4.03;3.47;;;;;;;0.99;100.00;97275.94;5093260;28;20277;-65
2020/12/31 02:23:18;;;;;;;5.47;3.90;;;;;;;0.83;100.00;97282.75;5093055;28;20213;-65
2020/12/31 02:25:44;;;;;;;4.00;3.53;;;;;;;0.76;100.00;97286.53;5093431;28;20215;-67
2020/12/31 02:28:10;;;;;;;4.03;3.23;;;;;;;0.73;100.00;97280.59;5093289;28;20217;-68
2020/12/31 02:30:35;;;;;;;5.67;4.03;;;;;;;0.64;100.00;97281.88;5093156;28;20295;-66
2020/12/31 02:33:01;;;;;;;5.20;3.93;;;;;;;0.72;100.00;97284.97;5092496;28;20210;-66
2020/12/31 02:35:28;;;;;;;4.37;3.97;;;;;;;0.73;100.00;97284.06;5091548;28;20691;-65
2020/12/31 02:37:53;;;;;;;5.20;4.13;;;;;;;0.78;100.00;97283.84;5092916;28;20698;-65
2020/12/31 02:40:20;;;;;;;6.87;4.33;;;;;;;0.78;100.00;97284.69;5093093;28;20273;-65
2020/12/31 02:42:46;;;;;;;4.20;3.80;;;;;;;0.72;100.00;97284.97;5093080;28;20211;-65
2020/12/31 02:45:12;;;;;;;4.90;4.07;;;;;;;0.68;100.00;97282.56;5093264;28;20221;-65
2020/12/31 02:47:39;;;;;;;5.17;4.30;;;;;;;0.65;100.00;97282.69;5093167;28;20240;-65
2020/12/31 02:50:06;;;;;;;6.47;4.10;;;;;;;0.70;100.00;97276.41;5092787;28;20276;-65
2020/12/31 02:52:32;;;;;;;5.63;4.53;;;;;;;0.71;100.00;97282.44;5093134;28;20214;-66
2020/12/31 02:54:58;;;;;;;6.40;4.47;;;;;;;0.70;100.00;97279.00;5093206;28;20217;-65
2020/12/31 02:57:24;;;;;;;6.77;4.90;;;;;;;0.69;100.00;97279.06;5093003;28;20207;-65
2020/12/31 02:59:50;;;;;;;5.73;4.37;;;;;;;0.65;100.00;97278.34;5092583;28;20716;-67
2020/12/31 03:02:16;;;;;;;5.67;4.50;;;;;;;0.56;100.00;97276.13;5091317;28;20208;-68
2020/12/31 03:04:42;;;;;;;6.03;4.60;;;;;;;0.48;100.00;97274.78;5093165;28;20229;-68
2020/12/31 03:07:08;;;;;;;5.40;4.07;;;;;;;0.49;100.00;97272.13;5093024;28;20821;-68
2020/12/31 03:09:34;;;;;;;5.63;4.30;;;;;;;0.44;100.00;97268.03;5092586;28;20206;-68
2020/12/31 03:12:00;;;;;;;4.73;3.80;;;;;;;0.47;100.00;97271.34;5092612;28;20270;-67
2020/12/31 03:14:27;;;;;;;5.53;4.80;;;;;;;0.52;100.00;97277.22;5092653;28;20222;-66
2020/12/31 03:16:53;;;;;;;9.57;5.27;;;;;;;0.62;100.00;97268.06;5092703;28;20226;-66
2020/12/31 03:19:19;;;;;;;6.37;4.57;;;;;;;0.70;100.00;97270.34;5092768;28;20719;-67
2020/12/31 03:21:45;;;;;;;6.03;4.90;;;;;;;0.76;100.00;97272.69;5092813;28;20210;-66
2020/12/31 03:24:11;;;;;;;6.77;4.90;;;;;;;0.84;100.00;97261.03;5092499;28;20203;-66
2020/12/31 03:26:37;;;;;;;7.07;4.97;;;;;;;0.70;100.00;97255.59;5092416;28;20207;-66
2020/12/31 03:29:03;;;;;;;5.80;4.83;;;;;;;0.56;100.00;97252.75;5091175;28;20214;-67
2020/12/31 03:31:29;;;;;;;6.93;4.70;;;;;;;0.49;100.00;97255.69;5092474;28;20289;-66
2020/12/31 03:33:55;;;;;;;8.57;4.93;;;;;;;0.41;100.00;97253.44;5092638;28;20678;-65
2020/12/31 03:36:21;;;;;;;8.20;5.07;;;;;;;0.36;100.00;97255.38;5092845;28;20215;-65
2020/12/31 03:38:47;;;;;;;8.30;5.77;;;;;;;0.39;100.00;97252.63;5092488;28;20621;-65
2020/12/31 03:41:13;;;;;;;7.10;5.93;;;;;;;0.28;100.00;97247.06;5092590;28;20207;-66
2020/12/31 03:43:39;;;;;;;8.00;5.17;;;;;;;0.29;100.00;97255.69;5092576;28;20238;-68
2020/12/31 03:46:05;;;;;;;6.93;4.80;;;;;;;0.19;100.00;97257.00;5095980;28;20286;-68
2020/12/31 03:48:32;;;;;;;5.77;4.60;;;;;;;0.16;100.00;97252.78;5096103;28;20218;-68
2020/12/31 03:50:58;;;;;;;7.50;4.53;;;;;;;0.14;100.00;97243.38;5096424;28;20209;-70
2020/12/31 03:53:24;;;;;;;5.50;4.83;;;;;;;0.15;100.00;97238.13;5094351;28;20214;-69
2020/12/31 03:55:50;;;;;;;8.50;4.90;;;;;;;0.19;100.00;97244.84;5096008;28;20213;-67
2020/12/31 03:58:16;;;;;;;7.00;5.17;;;;;;;0.18;100.00;97237.13;5096393;28;20211;-68
2020/12/31 04:00:42;;;;;;;6.67;5.07;;;;;;;0.17;100.00;97244.09;5095961;28;20288;-67
2020/12/31 04:03:08;;;;;;;7.80;5.23;;;;;;;0.08;100.00;97234.06;5096115;28;20214;-67
2020/12/31 04:05:34;;;;;;;5.87;4.60;;;;;;;0.05;100.00;97231.59;5095922;28;20222;-68
2020/12/31 04:08:01;;;;;;;6.23;4.70;;;;;;;-0.06;100.00;97226.00;5095782;28;20211;-68
2020/12/31 04:10:27;;;;;;;7.67;5.03;;;;;;;-0.14;100.00;97218.63;5096039;28;20271;-68
2020/12/31 04:12:53;;;;;;;6.97;4.67;;;;;;;-0.18;100.00;97228.28;5095446;28;20238;-68
2020/12/31 04:15:19;;;;;;;6.33;4.93;;;;;;;-0.23;100.00;97216.41;5095863;28;20618;-68
2020/12/31 04:17:45;;;;;;;6.33;5.30;;;;;;;-0.22;100.00;97218.06;5095667;28;20210;-67
2020/12/31 04:20:11;;;;;;;5.00;4.13;;;;;;;-0.23;100.00;97216.41;5094123;28;20321;-66
2020/12/31 04:22:37;;;;;;;4.73;4.00;;;;;;;-0.28;100.00;97214.00;5096027;28;20294;-66
2020/12/31 04:25:03;;;;;;;5.40;4.33;;;;;;;-0.41;100.00;97207.63;5095641;28;20214;-66
2020/12/31 04:27:29;;;;;;;5.80;4.40;;;;;;;-0.43;100.00;97211.19;5095272;28;20702;-66
2020/12/31 04:29:55;;;;;;;6.00;4.87;;;;;;;-0.43;100.00;97203.41;5095532;28;20206;-66
2020/12/31 04:32:21;;;;;;;5.00;4.20;;;;;;;-0.44;100.00;97196.53;5095539;28;20241;-65
2020/12/31 04:34:47;;;;;;;5.67;4.60;;;;;;;-0.43;100.00;97198.22;5095310;28;20240;-65
2020/12/31 04:37:13;;;;;;;6.33;4.17;;;;;;;-0.45;100.00;97200.03;5095481;28;20210;-67
2020/12/31 04:39:40;;;;;;;5.00;4.00;;;;;;;-0.49;100.00;97195.84;5095305;28;20330;-66
2020/12/31 04:42:06;;;;;;;5.20;4.70;;;;;;;-0.55;100.00;97193.50;5095262;28;20227;-65
2020/12/31 04:44:32;;;;;;;5.27;4.30;;;;;;;-0.57;100.00;97195.34;5095360;28;20308;-66
2020/12/31 04:47:00;;;;;;;7.90;4.80;;;;;;;-0.60;100.00;97190.25;5093266;28;20214;-66
2020/12/31 04:49:28;;;;;;;8.07;5.20;;;;;;;-0.63;100.00;97190.41;5094782;28;20736;-67
2020/12/31 04:51:56;;;;;;;5.97;4.87;;;;;;;-0.64;100.00;97191.28;5095193;28;20206;-66
2020/12/31 04:54:22;;;;;;;7.00;4.47;;;;;;;-0.66;100.00;97187.91;5095105;28;20214;-67
2020/12/31 04:56:50;;;;;;;8.50;5.10;;;;;;;-0.70;100.00;97183.72;5094404;28;20221;-66
2020/12/31 04:59:16;;;;;;;6.73;4.60;;;;;;;-0.68;100.00;97187.13;5094499;28;20241;-66
2020/12/31 05:01:45;;;;;;;6.17;4.70;;;;;;;-0.68;100.00;97185.38;5094957;28;20305;-66
2020/12/31 05:04:11;;;;;;;6.47;4.63;;;;;;;-0.68;100.00;97187.13;5094830;28;20207;-66
2020/12/31 05:06:39;;;;;;;5.57;4.40;;;;;;;-0.70;100.00;97194.09;5094838;28;20224;-68
2020/12/31 05:09:15;;;;;;;5.93;4.30;;;;;;;-0.68;100.00;97189.72;5094780;28;20210;-68
2020/12/31 05:11:43;;;;;;;5.10;4.20;;;;;;;-0.68;100.00;97181.94;5092839;28;20213;-68
2020/12/31 05:14:10;;;;;;;6.20;4.50;;;;;;;-0.69;100.00;97190.63;5094378;28;20676;-68
2020/12/31 05:16:36;;;;;;;6.80;4.33;;;;;;;-0.73;100.00;97189.91;5094625;28;20203;-68
2020/12/31 05:19:19;;;;;;;5.80;4.73;;;;;;;-0.74;100.00;97192.56;5094530;28;20239;-67
2020/12/31 05:21:45;;;;;;;5.23;4.07;;;;;;;-0.72;100.00;97185.56;5094463;28;20225;-68
2020/12/31 05:24:12;;;;;;;5.97;4.43;;;;;;;-0.75;100.00;97191.72;5094431;28;20212;-68
2020/12/31 05:26:38;;;;;;;4.33;3.83;;;;;;;-0.80;100.00;97187.63;5094386;28;20225;-68
2020/12/31 05:29:04;;;;;;;5.43;4.43;;;;;;;-0.79;100.00;97189.31;5094318;28;20685;-68
2020/12/31 05:31:51;;;;;;;5.33;4.50;;;;;;;-0.79;100.00;97184.13;5094339;28;20205;-66
2020/12/31 05:34:28;;;;;;;6.10;4.43;;;;;;;-0.85;100.00;97184.34;5094495;28;20209;-68
2020/12/31 05:36:54;;;;;;;5.83;4.27;;;;;;;-0.91;100.00;97184.59;5094153;28;20214;-67
2020/12/31 05:39:20;;;;;;;7.53;4.30;;;;;;;-0.92;100.00;97180.31;5094747;28;20241;-67
2020/12/31 05:41:46;;;;;;;5.77;4.40;;;;;;;-0.92;100.00;97175.97;5094571;28;20706;-64
2020/12/31 05:44:11;;;;;;;5.30;3.97;;;;;;;-0.91;100.00;97176.81;5094172;28;20279;-64
2020/12/31 05:46:39;;;;;;;5.93;4.50;;;;;;;-0.95;100.00;97181.28;5093731;28;20248;-64
2020/12/31 05:49:08;;;;;;;4.97;3.83;;;;;;;-0.95;100.00;97178.69;5093782;28;20218;-65
2020/12/31 05:51:35;;;;;;;4.90;3.73;;;;;;;-1.01;100.00;97173.75;5093689;28;20624;-65
2020/12/31 05:54:06;;;;;;;5.57;4.50;;;;;;;-1.01;100.00;97175.47;5093685;28;20210;-64
2020/12/31 05:56:33;;;;;;;5.20;4.07;;;;;;;-0.99;100.00;97173.69;5093506;28;20693;-65
2020/12/31 05:59:07;;;;;;;4.50;3.93;;;;;;;-0.96;100.00;97170.97;5093731;28;20214;-65
2020/12/31 06:01:36;;;;;;;5.93;4.17;;;;;;;-0.92;100.00;97167.34;5093591;28;20217;-65
2020/12/31 06:04:17;;;;;;;4.87;3.80;;;;;;;-0.88;100.00;97174.94;5092403;28;20214;-65
2020/12/31 06:06:49;;;;;;;4.47;3.63;;;;;;;-0.82;100.00;97168.66;5093632;28;20206;-66
2020/12/31 06:09:26;;;;;;;6.00;4.13;;;;;;;-0.74;100.00;97166.63;5092670;28;20557;-68
2020/12/31 06:11:58;;;;;;;5.63;4.33;;;;;;;-0.75;100.00;97175.31;5093142;28;20213;-66
2020/12/31 06:14:27;;;;;;;6.37;4.60;;;;;;;-0.89;100.00;97164.63;5093599;28;20217;-66
2020/12/31 06:16:56;;;;;;;5.53;4.30;;;;;;;-0.87;100.00;97165.44;5093553;28;20206;-66
2020/12/31 06:19:33;;;;;;;6.40;4.40;;;;;;;-0.91;100.00;97163.84;5093504;28;20234;-67
2020/12/31 06:22:01;;;;;;;4.97;3.70;;;;;;;-0.92;100.00;97167.34;5093312;28;20210;-67
2020/12/31 06:24:32;;;;;;;4.43;4.00;;;;;;;-0.90;100.00;97161.22;5093511;28;20210;-67
2020/12/31 06:27:04;;;;;;;5.83;4.30;;;;;;;-0.90;100.00;97157.75;5093436;28;20256;-67
2020/12/31 06:29:36;;;;;;;5.40;4.20;;;;;;;-0.87;100.00;97160.25;5091308;28;20672;-66
2020/12/31 06:32:11;;;;;;;5.57;3.80;;;;;;;-0.83;100.00;97151.41;5093147;28;20210;-64
2020/12/31 06:34:38;;;;;;;6.00;4.40;;;;;;;-0.94;100.00;97154.44;5093267;28;20222;-65
2020/12/31 06:37:08;;;;;;;5.67;3.83;;;;;;;-0.97;100.00;97153.72;5093240;28;20220;-63
2020/12/31 06:39:34;;;;;;;6.03;4.03;;;;;;;-0.94;100.00;97153.59;5093376;28;20665;-65
2020/12/31 06:42:00;;;;;;;4.63;3.97;;;;;;;-0.94;100.00;97143.22;5093400;28;20543;-65
2020/12/31 06:44:29;;;;;;;5.03;4.30;;;;;;;-0.93;100.00;97145.75;5093387;28;20249;-65
2020/12/31 06:46:55;;;;;;;4.80;4.20;;;;;;;-0.84;100.00;97147.13;5093278;28;20209;-64
2020/12/31 06:49:21;;;;;;;5.43;4.30;;;;;;;-0.65;100.00;97148.06;5092922;28;20215;-64
2020/12/31 06:51:48;;;;;;;6.97;4.30;;;;;;;-0.59;100.00;97150.44;5092958;28;20211;-64
2020/12/31 06:54:28;;;;;;;6.17;4.17;;;;;;;-0.72;100.00;97149.25;5093033;28;20280;-65
2020/12/31 06:56:53;;;;;;;5.90;4.10;;;;;;;-0.68;100.00;97145.63;5091361;28;20214;-64
2020/12/31 06:59:27;;;;;;;5.27;4.17;;;;;;;-0.67;100.00;97149.91;5093017;28;20280;-69
2020/12/31 07:01:55;;;;;;;5.47;4.90;;;;;;;-0.65;100.00;97150.69;5093101;28;20206;-70
2020/12/31 07:04:42;;;;;;;9.17;4.80;;;;;;;-0.79;100.00;97137.44;5092692;28;20686;-67
2020/12/31 07:07:27;;;;;;;6.50;4.50;;;;;;;-0.81;100.00;97147.03;5087911;28;20242;-67
2020/12/31 07:09:55;;;;;;;6.27;4.63;;;;;;;-0.74;100.00;97151.06;5093001;28;20210;-67
2020/12/31 07:12:35;;;;;;;6.77;4.53;;;;;;;-0.73;100.00;97142.38;5092704;28;20230;-67
2020/12/31 07:15:01;;;;;;;4.67;4.13;;;;;;;-0.72;100.00;97141.47;5092914;28;20276;-67
2020/12/31 07:17:34;;;;;;;7.40;4.70;;;;;;;-0.67;100.00;97142.97;5092717;28;20210;-66
2020/12/31 07:20:01;;;;;;;6.33;4.50;;;;;;;-0.70;100.00;97139.63;5094437;28;20243;-67
2020/12/31 07:22:29;;;;;;;6.23;4.23;;;;;;;-0.72;100.00;97144.06;5094843;28;20214;-67
2020/12/31 07:24:57;;;;;;;6.33;4.80;;;;;;;-0.70;100.00;97144.81;5096734;28;20258;-67
2020/12/31 07:27:29;;;;;;;5.73;4.33;;;;;;;-0.67;100.00;97131.75;5096712;28;20216;-67
2020/12/31 07:30:00;;;;;;;5.60;4.63;;;;;;;-0.60;100.00;97133.19;5096451;28;20203;-66
2020/12/31 07:32:59;;;;;;;6.30;4.90;;;;;;;-0.57;100.00;97130.47;5096596;28;20214;-66
2020/12/31 07:35:30;;;;;;;5.13;4.23;;;;;;;-0.48;100.00;97132.66;5096499;28;20206;-67
2020/12/31 07:37:59;;;;;;;5.80;5.03;;;;;;;-0.39;100.00;97127.09;5096711;28;20207;-65
2020/12/31 07:40:43;;;;;;;6.30;4.30;;;;;;;-0.28;100.00;97127.47;5096406;28;20234;-64
2020/12/31 07:43:12;;;;;;;6.10;4.57;;;;;;;-0.17;100.00;97123.53;5096467;28;20217;-65
2020/12/31 07:45:38;;;;;;;7.37;5.20;;;;;;;-0.08;100.00;97128.31;5096381;28;20213;-65
2020/12/31 07:48:05;;;;;;;6.53;4.73;;;;;;;-0.06;100.00;97127.34;5094804;28;20208;-65
2020/12/31 07:50:31;;;;;;;6.37;4.63;;;;;;;0.02;100.00;97120.03;5096417;28;20209;-65
2020/12/31 07:53:01;;;;;;;5.87;4.73;;;;;;;0.15;100.00;97126.41;5096632;28;20605;-65
2020/12/31 07:55:27;;;;;;;6.03;4.77;;;;;;;0.27;100.00;97115.47;5096240;28;20210;-67
2020/12/31 07:57:53;;;;;;;6.60;4.57;;;;;;;0.38;100.00;97122.78;5096137;28;20214;-67
2020/12/31 08:00:21;;;;;;;6.73;4.63;;;;;;;0.47;100.00;97123.19;5096008;28;20233;-67
2020/12/31 08:02:49;;;;;;;5.10;4.33;;;;;;;0.57;100.00;97118.44;5096038;28;20214;-68
2020/12/31 08:05:17;;;;;;;6.67;4.83;;;;;;;0.65;100.00;97114.56;5095806;28;20676;-67
2020/12/31 08:07:44;;;;;;;5.87;4.97;;;;;;;0.69;100.00;97118.69;5095950;28;20623;-67
2020/12/31 08:10:11;;;;;;;5.77;4.67;;;;;;;0.73;100.00;97119.38;5095678;28;20217;-67
2020/12/31 08:12:39;;;;;;;5.83;4.93;;;;;;;0.80;100.00;97120.81;5095831;28;20242;-67
2020/12/31 08:15:06;;;;;;;6.90;4.83;;;;;;;0.81;100.00;97117.28;5093834;28;20697;-67
2020/12/31 08:17:32;;;;;;;7.40;5.33;;;;;;;0.91;100.00;97110.72;5095839;28;20210;-67
2020/12/31 08:20:01;;;;;;;6.50;5.20;;;;;;;0.95;100.00;97104.47;5095819;28;20231;-67
2020/12/31 08:22:32;;;;;;;6.10;4.80;;;;;;;1.01;100.00;97106.78;5095766;28;20214;-67
2020/12/31 08:25:03;;;;;;;10.63;7.17;;;;;;;1.01;100.00;97104.19;5095761;28;20210;-67
2020/12/31 08:27:32;;;;;;;10.83;7.30;;;;;;;1.05;100.00;97109.16;5095341;28;20664;-66
2020/12/31 08:29:58;;;;;;;6.63;5.13;;;;;;;1.10;100.00;97108.94;5095406;28;20226;-67
2020/12/31 08:32:27;;;;;;;7.17;5.20;;;;;;;1.15;100.00;97101.75;5094631;28;20217;-67
2020/12/31 08:34:56;;;;;;;6.20;5.10;;;;;;;1.21;100.00;97104.91;5095551;28;20233;-67
2020/12/31 08:37:23;;;;;;;7.57;5.07;;;;;;;1.30;100.00;97099.22;5095576;28;20264;-66
2020/12/31 08:39:50;;;;;;;7.93;4.90;;;;;;;1.32;100.00;97105.22;5093378;28;20234;-66
2020/12/31 08:42:19;;;;;;;7.00;5.47;;;;;;;1.35;100.00;97110.25;5094955;28;20215;-66
2020/12/31 08:44:51;;;;;;;5.80;4.80;;;;;;;1.42;100.00;97103.84;5095246;28;20214;-66
2020/12/31 08:47:19;;;;;;;6.13;4.77;;;;;;;1.46;100.00;97102.78;5095221;28;20215;-66
2020/12/31 08:49:50;;;;;;;5.87;4.67;;;;;;;1.48;100.00;97095.72;5092556;28;20635;-69
2020/12/31 08:52:16;;;;;;;6.70;5.23;;;;;;;1.53;100.00;97106.75;5092730;28;20742;-68
2020/12/31 08:54:42;;;;;;;6.93;5.40;;;;;;;1.53;100.00;97108.53;5093811;28;20297;-67
2020/12/31 08:57:15;;;;;;;5.87;5.07;;;;;;;1.61;100.00;97107.19;5094098;28;20207;-66
2020/12/31 08:59:41;;;;;;;6.00;5.40;;;;;;;1.72;100.00;97104.91;5091133;28;20223;-67
2020/12/31 09:02:11;;;;;;;6.43;5.00;;;;;;;1.78;100.00;97109.81;5093448;28;20805;-66
2020/12/31 09:04:37;;;;;;;7.60;5.63;;;;;;;1.88;100.00;97105.81;5093921;28;20215;-66
2020/12/31 09:07:10;;;;;;;6.40;5.47;;;;;;;1.98;100.00;97112.25;5091399;28;20210;-66
2020/12/31 09:09:36;;;;;;;8.70;5.93;;;;;;;2.07;100.00;97098.72;5093969;28;20215;-67
2020/12/31 09:12:04;;;;;;;6.37;4.90;;;;;;;2.17;100.00;97104.31;5094358;28;20238;-66
2020/12/31 09:14:31;;;;;;;8.20;5.53;;;;;;;2.25;100.00;97105.59;5094375;28;20692;-66
2020/12/31 09:16:59;;;;;;;5.70;5.10;;;;;;;2.35;100.00;97117.22;5094308;28;20210;-66
2020/12/31 09:19:26;;;;;;;7.77;5.63;;;;;;;2.45;99.01;97113.19;5094160;28;20214;-66
2020/12/31 09:21:52;;;;;;;6.23;5.13;;;;;;;2.54;97.49;97110.09;5094496;28;20207;-67
2020/12/31 09:24:19;;;;;;;7.97;5.67;;;;;;;2.62;97.01;97107.91;5094431;28;20213;-66
2020/12/31 09:26:53;;;;;;;6.67;5.57;;;;;;;2.69;96.17;97109.25;5094519;28;20207;-66
2020/12/31 09:29:19;;;;;;;6.70;5.53;;;;;;;2.74;95.54;97107.25;5094389;28;20210;-66
2020/12/31 09:31:46;;;;;;;7.67;5.70;;;;;;;2.77;95.30;97098.41;5092765;28;20214;-65
2020/12/31 09:34:12;;;;;;;9.07;5.97;;;;;;;2.85;94.88;97106.66;5094477;28;20211;-66
2020/12/31 09:36:39;;;;;;;7.43;5.70;;;;;;;2.86;93.65;97103.13;5093130;28;20210;-65
2020/12/31 09:39:05;;;;;;;7.77;5.30;;;;;;;2.95;93.12;97098.22;5093347;28;20676;-65
2020/12/31 09:41:31;;;;;;;6.43;5.10;;;;;;;3.02;92.71;97103.97;5093618;28;20230;-65
2020/12/31 09:43:57;;;;;;;7.33;5.80;;;;;;;3.09;91.61;97094.88;5093463;28;20206;-66
2020/12/31 09:46:23;;;;;;;6.53;5.00;;;;;;;3.13;91.74;97101.59;5093532;28;20221;-65
2020/12/31 09:48:50;;;;;;;8.33;5.63;;;;;;;3.20;91.40;97093.34;5093684;28;20608;-65
2020/12/31 09:51:16;;;;;;;7.67;5.57;;;;;;;3.25;91.26;97099.13;5093558;28;20620;-65
2020/12/31 09:53:43;;;;;;;7.00;5.60;;;;;;;3.37;91.23;97095.00;5093519;28;20203;-65
2020/12/31 09:56:10;;;;;;;7.03;5.47;;;;;;;3.45;91.30;97101.47;5093421;28;20229;-65
2020/12/31 09:58:36;;;;;;;9.20;5.60;;;;;;;3.51;90.71;97093.28;5091521;28;20225;-65
2020/12/31 10:01:03;;;;;;;7.60;5.83;;;;;;;3.57;90.24;97092.91;5092994;28;20231;-66
2020/12/31 10:03:29;;;;;;;7.53;6.00;;;;;;;3.60;90.30;97090.13;5093305;28;20234;-66
2020/12/31 10:05:55;;;;;;;9.03;5.70;;;;;;;3.58;90.46;97084.16;5092885;28;20216;-65
2020/12/31 10:08:21;;;;;;;8.63;5.83;;;;;;;3.56;90.67;97086.00;5092911;28;20698;-65
2020/12/31 10:10:48;;;;;;;7.00;5.10;;;;;;;3.50;90.98;97086.38;5093498;28;20236;-67
2020/12/31 10:13:14;;;;;;;6.80;5.67;;;;;;;3.52;91.16;97083.66;5093095;28;20692;-67
2020/12/31 10:15:40;;;;;;;7.40;5.80;;;;;;;3.46;91.50;97087.47;5093037;28;20217;-65
2020/12/31 10:18:06;;;;;;;8.00;6.13;;;;;;;3.40;92.02;97082.59;5093019;28;20215;-66
2020/12/31 10:20:32;;;;;;;7.13;5.73;;;;;;;3.35;92.73;97071.56;5092266;28;20230;-66
2020/12/31 10:22:59;;;;;;;6.97;5.47;;;;;;;3.25;93.65;97062.56;5092959;28;20215;-66
2020/12/31 10:25:25;;;;;;;7.43;5.87;;;;;;;3.27;93.59;97070.31;5091410;28;20211;-66
2020/12/31 10:27:51;;;;;;;8.57;5.60;;;;;;;3.27;94.17;97059.88;5092858;28;20621;-65
2020/12/31 10:30:17;;;;;;;8.63;6.00;;;;;;;3.32;94.06;97053.50;5092828;28;20272;-66
2020/12/31 10:32:44;;;;;;;7.10;5.77;;;;;;;3.33;94.62;97047.31;5092452;28;20753;-65
2020/12/31 10:35:09;;;;;;;6.83;5.63;;;;;;;3.40;95.36;97048.66;5092710;28;20573;-66
2020/12/31 10:37:36;;;;;;;7.97;5.57;;;;;;;3.53;94.82;97041.78;5092661;28;20206;-66
2020/12/31 10:40:02;;;;;;;7.97;5.50;;;;;;;3.59;91.21;97035.34;5092365;28;20878;-66
2020/12/31 10:42:27;;;;;;;7.10;5.63;;;;;;;3.53;91.44;97036.56;5092812;28;20237;-65
2020/12/31 10:44:54;;;;;;;9.13;5.70;;;;;;;3.47;93.10;97034.31;5092789;28;20671;-65
2020/12/31 10:47:20;;;;;;;7.43;5.57;;;;;;;3.46;94.26;97035.25;5092311;28;20668;-65
2020/12/31 10:49:46;;;;;;;7.73;6.33;;;;;;;3.46;94.40;97037.00;5092202;28;20218;-66
2020/12/31 10:52:12;;;;;;;8.23;6.13;;;;;;;3.49;95.21;97031.59;5091557;28;20210;-65
2020/12/31 10:54:38;;;;;;;8.10;6.57;;;;;;;3.56;93.81;97031.13;5093744;28;20614;-66
2020/12/31 10:57:04;;;;;;;8.17;6.63;;;;;;;3.62;94.13;97020.31;5096446;28;20241;-68
2020/12/31 10:59:30;;;;;;;12.10;6.37;;;;;;;3.68;94.41;97017.34;5096404;28;20211;-66
2020/12/31 11:01:57;;;;;;;8.93;6.90;;;;;;;3.71;93.42;97011.09;5096446;28;20206;-68
2020/12/31 11:04:23;;;;;;;8.57;6.23;;;;;;;3.84;93.41;97018.13;5096666;28;20217;-68
2020/12/31 11:06:49;;;;;;;7.17;5.83;;;;;;;3.91;91.83;97016.81;5096682;28;20221;-67
2020/12/31 11:09:15;;;;;;;8.57;6.13;;;;;;;3.99;91.38;97011.97;5096737;28;20218;-67
2020/12/31 11:11:42;;;;;;;8.07;5.77;;;;;;;4.06;93.27;97005.44;5096360;28;20218;-67
2020/12/31 11:14:09;;;;;;;6.00;4.80;;;;;;;4.07;92.16;97011.50;5096573;28;20213;-66
2020/12/31 11:16:35;;;;;;;6.10;4.57;;;;;;;3.98;92.59;97010.28;5094331;28;20206;-68
2020/12/31 11:19:02;;;;;;;6.93;5.03;;;;;;;3.98;93.56;97006.84;5096566;28;20202;-68
2020/12/31 11:21:28;;;;;;;6.90;4.80;;;;;;;3.95;93.71;97005.25;5096424;28;20231;-67
2020/12/31 11:23:54;;;;;;;6.03;4.97;;;;;;;3.91;94.65;97003.75;5096342;28;20241;-68
2020/12/31 11:26:21;;;;;;;6.00;4.77;;;;;;;3.87;95.02;96989.22;5096057;28;20217;-67
2020/12/31 11:28:48;;;;;;;6.57;5.00;;;;;;;3.88;95.80;96987.41;5095979;28;20683;-67
2020/12/31 11:31:15;;;;;;;6.27;4.93;;;;;;;3.85;96.52;96983.22;5096064;28;20210;-68
2020/12/31 11:33:42;;;;;;;8.10;5.47;;;;;;;3.90;96.50;96980.31;5096225;28;20210;-68